createdAt,value
2023-03-26T00:00:43.659Z,3.63
2023-03-26T00:03:11.656Z,3.20
2023-03-26T00:05:39.536Z,4.15
2023-03-26T00:10:41.432Z,3.58
2023-03-26T00:13:09.002Z,3.10
2023-03-26T00:15:36.575Z,2.70
2023-03-26T00:18:04.088Z,2.63
2023-03-26T00:20:34.744Z,3.00
2023-03-26T00:25:28.770Z,3.40
2023-03-26T00:27:55.776Z,3.50
2023-03-26T00:30:23.082Z,2.60
2023-03-26T00:32:53.917Z,4.18
2023-03-26T00:35:27.264Z,3.90
2023-03-26T00:38:03.246Z,2.47
2023-03-26T00:40:32.291Z,2.95
2023-03-26T00:42:59.312Z,4.30
2023-03-26T00:45:26.346Z,3.58
2023-03-26T00:47:53.595Z,4.75
2023-03-26T00:50:20.840Z,4.75
2023-03-26T00:52:55.128Z,3.15
2023-03-26T00:55:23.327Z,2.75
2023-03-26T00:57:50.347Z,3.25
2023-03-26T01:00:19.350Z,3.75
2023-03-26T01:02:46.812Z,4.00
2023-03-26T01:05:33.965Z,3.72
2023-03-26T01:08:02.566Z,3.28
2023-03-26T01:10:30.028Z,2.75
2023-03-26T01:12:57.055Z,3.75
2023-03-26T01:15:29.788Z,2.83
2023-03-26T01:17:58.869Z,2.75
2023-03-26T01:20:30.319Z,3.70
2023-03-26T01:23:00.855Z,3.28
2023-03-26T01:27:56.561Z,2.97
2023-03-26T01:30:34.160Z,3.88
2023-03-26T01:33:16.527Z,3.40
2023-03-26T01:36:01.482Z,3.40
2023-03-26T01:39:00.485Z,3.45
2023-03-26T01:41:44.926Z,2.72
2023-03-26T01:44:13.102Z,3.47
2023-03-26T01:46:41.110Z,3.28
2023-03-26T01:49:12.904Z,3.47
2023-03-26T01:51:41.175Z,4.20
2023-03-26T01:54:14.045Z,2.05
2023-03-26T01:56:50.973Z,4.80
2023-03-26T01:59:31.203Z,3.92
2023-03-26T02:07:18.027Z,4.03
2023-03-26T02:09:49.773Z,3.33
2023-03-26T02:12:17.980Z,3.20
2023-03-26T02:14:45.090Z,3.13
2023-03-26T02:17:12.506Z,3.40
2023-03-26T02:22:15.724Z,2.35
2023-03-26T02:24:43.483Z,3.10
2023-03-26T02:27:12.377Z,2.90
2023-03-26T02:32:15.474Z,3.60
2023-03-26T02:34:43.089Z,3.35
2023-03-26T02:37:10.674Z,2.80
2023-03-26T02:39:37.715Z,2.38
2023-03-26T02:44:50.754Z,2.63
2023-03-26T02:47:17.848Z,3.45
2023-03-26T02:49:44.972Z,2.90
2023-03-26T02:55:00.639Z,2.95
2023-03-26T02:57:27.740Z,3.60
2023-03-26T02:59:54.832Z,3.28
2023-03-26T03:02:24.198Z,4.97
2023-03-26T03:04:51.922Z,4.28
2023-03-26T03:10:03.889Z,3.10
2023-03-26T03:12:30.940Z,2.45
2023-03-26T03:14:58.006Z,2.75
2023-03-26T03:17:25.087Z,2.75
2023-03-26T03:19:52.231Z,2.90
2023-03-26T03:22:26.020Z,2.50
2023-03-26T03:24:53.047Z,3.08
2023-03-26T03:27:21.319Z,3.88
2023-03-26T03:29:48.386Z,3.72
2023-03-26T03:32:15.394Z,3.28
2023-03-26T03:34:42.442Z,2.58
2023-03-26T03:39:55.355Z,3.05
2023-03-26T03:42:22.423Z,3.08
2023-03-26T03:44:49.444Z,3.45
2023-03-26T03:47:16.418Z,4.18
2023-03-26T03:49:43.424Z,4.10
2023-03-26T03:54:43.791Z,2.72
2023-03-26T03:57:10.817Z,3.70
2023-03-26T03:59:37.868Z,3.00
2023-03-26T04:02:04.885Z,3.75
2023-03-26T04:04:32.723Z,3.63
2023-03-26T04:09:44.314Z,3.33
2023-03-26T04:12:11.327Z,2.70
2023-03-26T04:14:38.373Z,3.63
2023-03-26T04:17:05.782Z,3.55
2023-03-26T04:19:32.768Z,3.58
2023-03-26T04:24:49.684Z,2.97
2023-03-26T04:27:25.425Z,2.95
2023-03-26T04:29:52.468Z,3.47
2023-03-26T04:32:26.361Z,3.03
2023-03-26T04:34:54.049Z,3.20
2023-03-26T04:37:27.457Z,2.55
2023-03-26T04:42:41.699Z,2.80
2023-03-26T04:45:10.862Z,3.55
2023-03-26T04:47:38.947Z,3.63
2023-03-26T04:50:07.394Z,3.20
2023-03-26T04:52:34.849Z,3.65
2023-03-26T04:57:36.769Z,4.25
2023-03-26T05:02:39.969Z,3.65
2023-03-26T05:05:07.107Z,3.53
2023-03-26T05:07:34.102Z,3.08
2023-03-26T05:10:08.925Z,4.30
2023-03-26T05:12:35.960Z,3.88
2023-03-26T05:15:03.036Z,3.88
2023-03-26T05:17:34.833Z,3.83
2023-03-26T05:20:02.182Z,2.92
2023-03-26T05:22:29.219Z,3.83
2023-03-26T05:25:03.858Z,4.22
2023-03-26T05:27:31.186Z,4.72
2023-03-26T05:30:02.981Z,3.35
2023-03-26T05:32:31.151Z,3.80
2023-03-26T05:34:58.503Z,2.58
2023-03-26T05:37:25.551Z,3.92
2023-03-26T05:39:55.866Z,3.17
2023-03-26T05:42:23.254Z,5.00
2023-03-26T05:44:50.307Z,3.60
2023-03-26T05:47:17.352Z,2.95
2023-03-26T05:49:44.331Z,3.70
2023-03-26T05:52:11.968Z,3.03
2023-03-26T05:57:23.879Z,3.60
2023-03-26T05:59:50.993Z,3.08
2023-03-26T06:02:18.050Z,4.47
2023-03-26T06:04:45.707Z,3.20
2023-03-26T06:07:12.970Z,3.65
2023-03-26T06:12:23.856Z,3.90
2023-03-26T06:14:51.165Z,2.97
2023-03-26T06:17:18.219Z,3.40
2023-03-26T06:19:45.265Z,3.05
2023-03-26T06:22:18.836Z,3.47
2023-03-26T06:24:45.797Z,3.20
2023-03-26T06:27:12.804Z,3.88
2023-03-26T06:29:39.883Z,4.00
2023-03-26T06:32:18.521Z,3.25
2023-03-26T06:34:46.968Z,3.40
2023-03-26T06:37:14.141Z,4.43
2023-03-26T06:39:41.114Z,3.50
2023-03-26T06:42:08.199Z,3.00
2023-03-26T06:44:35.833Z,4.25
2023-03-26T06:47:02.877Z,4.00
2023-03-26T06:49:29.906Z,3.70
2023-03-26T06:51:57.436Z,4.88
2023-03-26T06:57:13.588Z,4.30
2023-03-26T06:59:40.656Z,5.40
2023-03-26T07:02:08.039Z,4.65
2023-03-26T07:04:35.270Z,4.88
2023-03-26T07:07:02.284Z,4.18
2023-03-26T07:15:01.235Z,4.70
2023-03-26T07:17:28.563Z,4.50
2023-03-26T07:19:55.656Z,4.65
2023-03-26T07:22:23.962Z,4.40
2023-03-26T07:24:51.142Z,4.50
2023-03-26T07:33:04.277Z,4.43
2023-03-26T07:35:33.444Z,3.70
2023-03-26T07:38:19.047Z,5.13
2023-03-26T07:41:04.075Z,3.85
2023-03-26T07:44:09.156Z,4.35
2023-03-26T07:46:37.089Z,4.00
2023-03-26T07:49:04.753Z,5.07
2023-03-26T07:51:32.139Z,4.15
2023-03-26T07:54:00.488Z,3.80
2023-03-26T07:56:35.609Z,4.18
2023-03-26T07:59:21.551Z,4.32
2023-03-26T08:01:57.148Z,4.07
2023-03-26T08:04:30.350Z,4.80
2023-03-26T08:07:03.511Z,4.32
2023-03-26T08:09:36.200Z,4.90
2023-03-26T08:17:50.296Z,5.18
2023-03-26T08:20:31.146Z,4.53
2023-03-26T08:23:04.351Z,4.35
2023-03-26T08:25:37.862Z,5.97
2023-03-26T08:28:23.849Z,4.03
2023-03-26T08:30:57.763Z,4.90
2023-03-26T08:33:27.977Z,5.22
2023-03-26T08:35:55.189Z,4.10
2023-03-26T08:38:22.682Z,5.22
2023-03-26T08:41:08.568Z,4.15
2023-03-26T08:43:55.611Z,3.88
2023-03-26T08:46:25.967Z,3.40
2023-03-26T08:49:12.823Z,3.90
2023-03-26T08:51:42.628Z,2.97
2023-03-26T09:00:11.100Z,3.70
2023-03-26T09:02:38.234Z,4.65
2023-03-26T09:05:32.221Z,3.85
2023-03-26T09:08:18.220Z,3.35
2023-03-26T09:10:51.884Z,3.40
2023-03-26T09:13:24.747Z,3.40
2023-03-26T09:16:06.240Z,2.80
2023-03-26T09:18:36.002Z,2.95
2023-03-26T09:26:41.673Z,3.20
2023-03-26T09:29:33.097Z,2.35
2023-03-26T09:32:28.413Z,2.90
2023-03-26T09:35:11.885Z,2.50
2023-03-26T09:37:58.391Z,2.30
2023-03-26T09:43:00.688Z,1.70
2023-03-26T09:45:27.709Z,2.20
2023-03-26T10:05:34.231Z,1.67
2023-03-26T10:08:20.413Z,1.70
2023-03-26T10:11:02.097Z,2.45
2023-03-26T10:13:39.954Z,1.65
2023-03-26T10:16:20.869Z,1.98
2023-03-26T10:18:52.282Z,1.90
2023-03-26T10:21:25.293Z,1.60
2023-03-26T10:24:22.146Z,1.80
2023-03-26T10:27:10.848Z,1.52
2023-03-26T10:29:47.617Z,1.55
2023-03-26T10:32:37.820Z,1.77
2023-03-26T10:35:22.879Z,1.95
2023-03-26T10:37:55.300Z,1.15
2023-03-26T10:40:31.615Z,2.15
2023-03-26T10:43:01.605Z,2.03
2023-03-26T10:45:46.659Z,1.42
2023-03-26T10:48:32.354Z,1.60
2023-03-26T10:51:25.882Z,1.88
2023-03-26T10:53:56.710Z,2.20
2023-03-26T10:59:12.317Z,3.28
2023-03-26T11:01:39.377Z,2.00
2023-03-26T11:04:12.727Z,1.42
2023-03-26T11:06:47.788Z,1.98
2023-03-26T11:09:20.639Z,1.65
2023-03-26T11:11:53.095Z,1.35
2023-03-26T11:17:40.722Z,1.67
2023-03-26T11:20:10.804Z,3.78
2023-03-26T11:22:53.156Z,1.90
2023-03-26T11:25:43.154Z,2.47
2023-03-26T11:28:11.254Z,1.45
2023-03-26T11:30:48.496Z,2.22
2023-03-26T11:33:21.821Z,1.40
2023-03-26T11:35:53.442Z,1.58
2023-03-26T11:41:13.486Z,2.38
2023-03-26T11:43:40.576Z,1.70
2023-03-26T11:46:12.946Z,1.52
2023-03-26T11:48:46.187Z,1.20
2023-03-26T11:51:23.189Z,1.33
2023-03-26T11:53:50.265Z,1.08
2023-03-26T12:02:10.426Z,0.60
2023-03-26T12:04:40.455Z,0.95
2023-03-26T12:07:26.290Z,0.40
2023-03-26T12:09:54.057Z,0.30
2023-03-26T12:12:22.413Z,0.30
2023-03-26T12:14:49.615Z,0.30
2023-03-26T12:19:54.024Z,0.20
2023-03-26T12:22:31.121Z,0.30
2023-03-26T12:25:02.403Z,0.20
2023-03-26T12:27:30.727Z,0.30
2023-03-26T12:30:11.086Z,0.30
2023-03-26T12:32:46.705Z,0.20
2023-03-26T12:37:57.939Z,0.40
2023-03-26T12:40:34.259Z,0.38
2023-03-26T12:44:47.004Z,0.20
2023-03-26T12:47:46.231Z,0.20
2023-03-26T12:48:47.342Z,0.40
2023-03-26T12:51:27.037Z,0.30
2023-03-26T12:53:54.094Z,0.30
2023-03-26T12:56:27.507Z,0.30
2023-03-26T13:01:51.141Z,0.20
2023-03-26T13:04:18.332Z,0.30
2023-03-26T13:07:01.916Z,0.43
2023-03-26T13:09:38.277Z,0.38
2023-03-26T13:12:05.688Z,0.40
2023-03-26T13:14:38.388Z,0.38
2023-03-26T13:19:41.437Z,0.50
2023-03-26T13:22:14.888Z,0.40
2023-03-26T13:24:49.627Z,0.43
2023-03-26T13:27:29.168Z,0.30
2023-03-26T13:30:14.775Z,0.30
2023-03-26T13:35:34.110Z,0.50
2023-03-26T13:43:46.574Z,0.27
2023-03-26T13:46:13.594Z,0.40
2023-03-26T13:48:42.056Z,0.50
2023-03-26T13:51:13.942Z,0.50
2023-03-26T13:53:48.214Z,0.50
2023-03-26T13:56:18.052Z,0.50
2023-03-26T14:10:08.420Z,0.50
2023-03-26T14:12:58.851Z,0.60
2023-03-26T14:15:32.583Z,0.60
2023-03-26T14:20:56.489Z,0.65
2023-03-26T14:23:37.966Z,0.60
2023-03-26T14:48:34.338Z,1.50
2023-03-26T15:51:11.880Z,4.78
2023-03-26T15:59:16.412Z,4.75
2023-03-26T16:01:46.412Z,4.10
2023-03-26T16:04:16.832Z,4.38
2023-03-26T16:33:23.869Z,0.63
2023-03-26T16:36:01.081Z,0.82
2023-03-26T16:41:18.355Z,0.70
2023-03-26T16:44:10.714Z,0.80
2023-03-26T16:46:39.601Z,0.80
2023-03-26T16:52:28.305Z,0.82
2023-03-26T16:57:56.238Z,0.60
2023-03-26T17:00:28.492Z,0.90
2023-03-26T17:03:00.370Z,0.90
2023-03-26T17:05:35.740Z,1.20
2023-03-26T17:08:11.451Z,1.10
2023-03-26T17:10:46.503Z,0.73
2023-03-26T17:16:03.337Z,0.82
2023-03-26T17:27:51.073Z,1.10
2023-03-26T17:30:41.599Z,1.10
2023-03-26T17:33:23.702Z,1.13
2023-03-26T17:35:52.001Z,1.35
2023-03-26T17:38:19.026Z,1.13
2023-03-26T17:40:48.016Z,1.20
2023-03-26T17:43:18.209Z,1.20
2023-03-26T17:45:46.978Z,1.08
2023-03-26T17:48:37.141Z,1.40
2023-03-26T17:51:29.139Z,1.70
2023-03-26T17:53:56.474Z,1.88
2023-03-26T17:56:25.878Z,1.80
2023-03-26T17:58:58.706Z,1.80
2023-03-26T18:01:48.710Z,1.70
2023-03-26T18:04:19.691Z,1.70
2023-03-26T18:06:49.943Z,1.63
2023-03-26T18:09:32.766Z,1.67
2023-03-26T18:12:06.188Z,1.45
2023-03-26T18:14:52.237Z,1.90
2023-03-26T18:17:19.351Z,1.08
2023-03-26T18:19:47.673Z,1.40
2023-03-26T18:22:34.985Z,1.48
2023-03-26T18:25:09.177Z,1.55
2023-03-26T18:27:38.684Z,1.73
2023-03-26T18:30:16.212Z,2.30
2023-03-26T18:33:01.792Z,2.95
2023-03-26T18:35:37.878Z,3.00
2023-03-26T18:38:05.783Z,3.67
2023-03-26T18:40:41.551Z,3.40
2023-03-26T18:43:22.209Z,3.85
2023-03-26T18:48:31.851Z,2.85
2023-03-26T18:51:05.713Z,3.20
2023-03-26T18:53:38.593Z,2.47
2023-03-26T18:56:19.401Z,2.60
2023-03-26T18:58:50.962Z,3.40
2023-03-26T19:01:25.412Z,3.75
2023-03-26T19:03:59.134Z,3.72
2023-03-26T19:06:26.620Z,4.00
2023-03-26T19:08:53.770Z,4.43
2023-03-26T19:11:21.132Z,4.57
2023-03-26T19:13:59.592Z,4.63
2023-03-26T19:16:33.394Z,4.90
2023-03-26T19:19:01.582Z,6.05
2023-03-26T19:21:28.894Z,5.43
2023-03-26T19:23:56.294Z,6.47
2023-03-26T19:26:23.342Z,4.75
2023-03-26T19:28:53.166Z,7.78
2023-03-26T19:31:33.832Z,7.00
2023-03-26T19:36:29.674Z,6.15
2023-03-26T19:38:59.577Z,7.43
2023-03-26T19:41:27.746Z,7.85
2023-03-26T19:43:57.909Z,8.15
2023-03-26T19:46:25.923Z,6.93
2023-03-26T19:54:25.178Z,5.03
2023-03-26T19:56:53.204Z,5.55
2023-03-26T19:59:20.275Z,7.10
2023-03-26T20:01:47.342Z,5.38
2023-03-26T20:04:14.438Z,5.07
2023-03-26T20:06:48.112Z,5.38
2023-03-26T20:09:16.272Z,5.45
2023-03-26T20:11:43.344Z,4.15
2023-03-26T20:14:15.108Z,5.75
2023-03-26T20:16:44.444Z,4.60
2023-03-26T20:19:13.834Z,5.07
2023-03-26T20:21:48.047Z,5.03
2023-03-26T20:24:18.478Z,3.80
2023-03-26T20:26:46.152Z,4.13
2023-03-26T20:29:13.622Z,3.92
2023-03-26T20:31:44.128Z,4.03
2023-03-26T20:34:19.706Z,4.72
2023-03-26T20:36:47.369Z,5.32
2023-03-26T20:39:14.912Z,4.43
2023-03-26T20:41:44.949Z,5.00
2023-03-26T20:44:15.069Z,3.85
2023-03-26T20:46:43.149Z,3.50
2023-03-26T20:49:11.049Z,3.38
2023-03-26T20:51:38.619Z,3.38
2023-03-26T20:54:06.418Z,5.28
2023-03-26T20:56:37.511Z,4.97
2023-03-26T20:59:11.158Z,4.85
2023-03-26T21:01:41.286Z,5.20
2023-03-26T21:04:08.456Z,6.30
2023-03-26T21:09:37.067Z,3.00
2023-03-26T21:12:08.092Z,2.97
2023-03-26T21:14:41.321Z,3.22
2023-03-26T21:17:16.534Z,3.13
2023-03-26T21:19:43.822Z,3.38
2023-03-26T21:22:33.436Z,3.50
2023-03-26T21:25:17.358Z,3.72
2023-03-26T21:27:44.435Z,3.95
2023-03-26T21:33:05.254Z,2.95
2023-03-26T21:35:34.665Z,4.50
2023-03-26T21:38:02.949Z,4.95
2023-03-26T21:40:30.149Z,3.75
2023-03-26T21:42:57.313Z,3.97
2023-03-26T21:47:56.178Z,3.90
2023-03-26T21:50:23.942Z,5.05
2023-03-26T21:52:51.641Z,3.38
2023-03-26T21:55:20.133Z,3.08
2023-03-26T21:58:06.131Z,3.10
2023-03-26T22:00:43.722Z,2.97
2023-03-26T22:06:15.426Z,3.95
2023-03-26T22:08:42.696Z,4.13
2023-03-26T22:11:12.151Z,4.10
2023-03-26T22:13:39.326Z,2.95
2023-03-26T22:16:07.167Z,2.10
2023-03-26T22:18:34.273Z,4.07
2023-03-26T22:26:42.002Z,4.95
2023-03-26T22:29:09.621Z,2.70
2023-03-26T22:31:39.121Z,2.65
2023-03-26T22:34:09.573Z,2.60
2023-03-26T22:36:38.433Z,3.05
2023-03-26T22:41:40.724Z,2.35
2023-03-26T22:44:18.925Z,3.50
2023-03-26T22:46:49.296Z,2.28
2023-03-26T22:49:16.737Z,2.17
2023-03-26T22:51:44.123Z,2.08
2023-03-26T22:54:14.491Z,2.70
2023-03-26T22:56:41.643Z,2.50
2023-03-26T22:59:08.677Z,2.10
2023-03-26T23:01:36.032Z,2.50
2023-03-26T23:04:03.187Z,3.17
2023-03-26T23:06:31.528Z,2.47
2023-03-26T23:12:00.037Z,2.83
2023-03-26T23:14:32.430Z,2.47
2023-03-26T23:17:02.952Z,2.85
2023-03-26T23:22:05.902Z,2.70
2023-03-26T23:24:33.256Z,1.65
2023-03-26T23:27:06.960Z,2.58
2023-03-26T23:29:34.257Z,2.28
2023-03-26T23:32:03.841Z,1.95
2023-03-26T23:34:53.168Z,3.42
2023-03-26T23:37:23.098Z,4.28
2023-03-26T23:39:51.096Z,1.98
2023-03-26T23:42:28.608Z,2.97
2023-03-26T23:45:02.923Z,2.25
2023-03-26T23:47:34.988Z,1.90
2023-03-26T23:50:02.640Z,2.83
2023-03-26T23:52:30.412Z,4.10
2023-03-26T23:54:59.759Z,2.50
2023-03-26T23:57:27.415Z,2.35
2023-03-26T23:59:55.609Z,2.38
